Pagrindinis puslapis
METAR-TAF:

METAR-TAF

Oro uostai :

Muş, Turkija

platuma: 38-45N, ilguma: 041-40E, Aukštis: 1266 m

Dabartinis oras

Ataskaita buvo paskelbta 8 valandos ir 16 minutes, ne 12:50 UTC
Vėjas 4 kt iš Šiaurės Vakarų
Temperatūra 7°C
Drėgmė 76%
Slėgis 1020 hPa
Matomumas 10 km arba daugiau
Mažai debesys ne aukštis 3500 ft
Išsisklaidę debesys ne aukštis 4000 ft
Su prošvaistėmis ne aukštis 8000 ft

METAR: LTCK 151250Z 31004KT 9999 FEW035 SCT040 BKN080 07/03 Q1020

Laikas: 00:06 (21:06 UTC)

Prognozė

Ataskaita buvo paskelbta 7 valandos ir 26 minutes, ne 13:40 UTC
Prognozė galioja nuo 15 metu 15 UTC su 15 metu 24 UTC
Vėjas 2 kt nuo kintamojo kryptimis
Matomumas: 6000 m
Išsisklaidę debesys ne aukštis 3500 ft
Su prošvaistėmis ne aukštis 7000 ft
Laikinai
nuo 15 metu 15 UTC su 15 metu 19 UTC
Matomumas: 4000 m
Išsisklaidę debesys ne aukštis 1000 ft
Su prošvaistėmis ne aukštis 3000 ft
lietus, sniegas, rūkana

TAF: LTCK 151340Z 1515/1524 VRB02KT 6000 SCT035 BKN070 TEMPO 1515/1519 4000 -RASN BR SCT010 BKN030

Orai ataskaitas ir orų prognozės (METAR, TAF).

turimą stotys yra geltonos ir raudonos taškus žemėlapyje.

Perkelti pele per norėdami pamatyti stoties vardą.

Tada spustelėkite, norėdami matyti oro stebėjimo ir prognozės.

Norėdami pakeisti žemėlapį: spustelėkite ant žalios mygtukų su juodo kryžiaus žemyn,; žalią mygtuką su brūkšneliu, jei norite nutolinti; arba žalių rodyklių gretimoms žemėlapius.


METAR-TAF: